Airfield :







YOU CAN JOIN US ON...

 
LOGIN :

Register | Disclaimer

   EN    FR    IT 

 









Legend :    VFR   Marginal VFR   IFR   Intensive IFR   Very Intensive IFR
Visi :
Ceiling :
>= 8 km
>= 3000ft
5 to 8 km
1000 to 3000 ft
1500m to 5 km
500 to 1000 ft
800 to 1500m
200 to 500 ft
< 800m
< 200 ft
Symbols :   Thunderstorms  Fog  Heavy snow  Heavy precipitations  Wind > 20 kt






- Airport Elevation : 192 ft
- IATA code : BGR


KBGR - Bangor International

CURRENT METAR :
  • 121853Z 29008KT 10SM FEW250 M03/M18 A3059 RMK AO2 SLP361 T10331178

EXPIRED METARs :
  • 121753Z 28008KT 240V310 10SM FEW040 FEW250 M03/M17 A3058 RMK AO2 SLP361 T10331167 11033 21072 56005
  • 121653Z 28009G23KT 10SM FEW040 FEW120 SCT200 M04/M17 A3058 RMK AO2 SLP361 T10441172 $

TAF KBGR
Valid from the 12 at 18:00 until the 13 at 18:00 UTC


121739Z 1218/1318 28009G20KT P6SM FEW120
FM122100 27004KT P6SM FEW100
FM130100 26003KT P6SM SCT100
FM130300 22003KT P6SM BKN100
FM131000 17004KT P6SM BKN070



MET'MAP, your aeronautical weather chart ! - Copyright ORBIFLY December 2007 - Disclaimer

ORBIFLY MET'MAP TEAM :

Programming & Development : Alexandra Zaïnal
Concept & original design : Baudouin d'Aumeries
Assistance for programming : Marc-Olivier Méhu
Technical & hardware support : Manuel Goepfert

Contact : metmap@orbifly.com




SOURCES & CREDITS :

   NOAA